Time;durP1;ratioP1;P1;durP2;ratioP2;P2;SDS_P1;SDS_P2;PMS_P1;PMS_P2;Temp;Humidity;BMP_temperature;BMP_pressure;BME280_temperature;BME280_humidity;BME280_pressure;Samples;Min_cycle;Max_cycle;Signal;HPM_P1;HPM_P2
2022/06/04 00:00:20;;;;;;;2.25;0.80;;;;;;;20.84;66.31;99546.88;5053395;28;20180;-67
2022/06/04 00:02:52;;;;;;;3.08;0.90;;;;;;;20.87;66.29;99543.31;5053200;28;20440;-66
2022/06/04 00:05:32;;;;;;;1.15;0.93;;;;;;;20.87;66.66;99538.97;5053927;28;20501;-66
2022/06/04 00:08:03;;;;;;;0.80;0.60;;;;;;;20.86;66.43;99544.19;5053827;28;20481;-66
2022/06/04 00:15:54;;;;;;;1.48;1.25;;;;;;;20.60;67.30;99576.50;5053611;28;20140;-66
2022/06/04 00:18:31;;;;;;;1.77;1.33;;;;;;;20.62;67.99;99595.41;5053268;28;20033;-65
2022/06/04 00:21:00;;;;;;;1.27;1.17;;;;;;;20.59;68.26;99611.09;5053084;28;20045;-65
2022/06/04 00:23:29;;;;;;;1.02;0.90;;;;;;;20.59;69.54;99616.28;5053176;28;20044;-65
2022/06/04 00:26:09;;;;;;;0.70;0.70;;;;;;;20.52;70.63;99625.25;5053089;28;20095;-68
2022/06/04 00:28:41;;;;;;;1.17;1.10;;;;;;;20.39;72.19;99618.88;5053596;28;20434;-68
2022/06/04 00:31:19;;;;;;;3.38;1.45;;;;;;;20.00;74.83;99617.00;5053003;28;20048;-69
2022/06/04 00:33:58;;;;;;;4.68;1.08;;;;;;;19.84;76.18;99605.53;5052963;28;20052;-69
2022/06/04 00:36:50;;;;;;;1.17;1.07;;;;;;;19.73;77.38;99592.16;5053090;28;20076;-68
2022/06/04 00:39:29;;;;;;;1.13;0.90;;;;;;;19.74;78.10;99593.88;5052895;28;20274;-67
2022/06/04 00:42:10;;;;;;;0.60;0.60;;;;;;;19.79;78.80;99589.34;5033034;28;20042;-67
2022/06/04 00:45:12;;;;;;;1.38;1.27;;;;;;;19.82;79.34;99591.78;5033349;28;20099;-68
2022/06/04 00:47:44;;;;;;;1.90;1.55;;;;;;;19.86;79.44;99588.19;4937004;29;20057;-69
2022/06/04 00:50:16;;;;;;;0.80;0.77;;;;;;;19.88;79.89;99596.75;5020578;28;20041;-69
2022/06/04 00:52:47;;;;;;;0.65;0.65;;;;;;;19.92;80.40;99598.31;5033171;28;20049;-68
2022/06/04 00:55:40;;;;;;;1.05;1.00;;;;;;;19.95;80.45;99595.59;5032683;28;20132;-68
2022/06/04 00:58:24;;;;;;;0.70;0.70;;;;;;;19.99;80.82;99604.06;5033385;28;20037;-68
2022/06/04 01:01:01;;;;;;;1.85;1.48;;;;;;;20.01;81.61;99612.66;5032933;28;20046;-67
2022/06/04 01:03:44;;;;;;;0.70;0.70;;;;;;;19.94;82.11;99616.38;5034556;28;20055;-68
2022/06/04 01:06:30;;;;;;;1.08;0.98;;;;;;;19.97;82.28;99617.09;5036911;28;20391;-68
2022/06/04 01:12:58;;;;;;;0.60;0.60;;;;;;;20.08;82.57;99633.06;5036558;28;20445;-69
2022/06/04 01:15:50;;;;;;;0.63;0.60;;;;;;;20.08;82.76;99633.06;5036259;28;20049;-69
2022/06/04 01:18:30;;;;;;;1.15;1.05;;;;;;;20.10;83.11;99627.81;5036121;28;20076;-69
2022/06/04 01:21:06;;;;;;;1.65;0.90;;;;;;;20.08;83.03;99628.78;5036147;28;20045;-70
2022/06/04 01:24:07;;;;;;;1.35;0.90;;;;;;;20.19;83.46;99642.16;5036078;28;20552;-69
2022/06/04 01:27:03;;;;;;;2.35;1.42;;;;;;;20.19;83.53;99642.16;5035945;28;20037;-68
2022/06/04 01:29:39;;;;;;;0.73;0.73;;;;;;;20.19;83.67;99629.19;5036112;28;20056;-69
2022/06/04 01:32:44;;;;;;;1.48;0.85;;;;;;;20.19;83.46;99629.19;5036050;28;20140;-70
2022/06/04 01:35:20;;;;;;;0.70;0.70;;;;;;;20.22;83.57;99632.56;5036049;28;20570;-70
2022/06/04 01:38:03;;;;;;;1.00;0.90;;;;;;;20.26;83.46;99633.25;5036187;28;20045;-69
2022/06/04 01:43:34;;;;;;;1.17;1.08;;;;;;;20.19;83.86;99616.22;5055477;28;20052;-70
2022/06/04 01:46:09;;;;;;;0.63;0.63;;;;;;;20.24;83.70;99619.50;5055593;28;20502;-69
2022/06/04 01:48:44;;;;;;;0.98;0.85;;;;;;;20.13;83.67;99590.56;5055875;28;20093;-70
2022/06/04 01:51:19;;;;;;;0.50;0.50;;;;;;;20.11;83.76;99582.84;5055420;28;20049;-70
2022/06/04 01:53:54;;;;;;;10.80;2.05;;;;;;;20.27;83.81;99609.03;5055876;28;20090;-70
2022/06/04 01:56:30;;;;;;;0.80;0.80;;;;;;;20.29;83.53;99597.69;5055904;28;20394;-70
2022/06/04 01:59:11;;;;;;;0.82;0.80;;;;;;;20.30;83.39;99583.00;5055337;28;20060;-70
2022/06/04 02:01:55;;;;;;;0.73;0.73;;;;;;;20.33;83.48;99582.84;5055387;28;20048;-70
2022/06/04 02:04:37;;;;;;;0.68;0.68;;;;;;;20.27;83.16;99567.56;5055553;28;20053;-70
2022/06/04 02:10:06;;;;;;;0.82;0.82;;;;;;;20.26;83.17;99565.84;5055249;28;20051;-70
2022/06/04 02:12:37;;;;;;;1.15;1.02;;;;;;;20.23;83.35;99561.63;5055579;28;20048;-70
2022/06/04 02:15:11;;;;;;;0.95;0.90;;;;;;;20.10;83.47;99546.63;5054887;28;20072;-70
2022/06/04 02:17:43;;;;;;;0.70;0.70;;;;;;;20.12;83.73;99558.63;5055001;28;20472;-70
2022/06/04 02:20:14;;;;;;;0.82;0.80;;;;;;;20.05;83.88;99560.63;5055348;28;20037;-70
2022/06/04 02:23:03;;;;;;;1.95;0.90;;;;;;;20.03;84.03;99559.84;5013373;28;20516;-70
2022/06/04 02:25:32;;;;;;;0.80;0.80;;;;;;;20.05;84.16;99563.22;5013378;28;20049;-70
2022/06/04 02:28:02;;;;;;;1.20;1.10;;;;;;;20.03;84.14;99554.66;5013165;28;20050;-70
2022/06/04 02:30:45;;;;;;;1.10;1.00;;;;;;;19.95;84.27;99536.00;5013027;28;20046;-70
2022/06/04 02:33:20;;;;;;;0.90;0.88;;;;;;;20.11;84.17;99561.28;5013181;28;20092;-70
2022/06/04 02:35:56;;;;;;;0.73;0.73;;;;;;;20.11;84.25;99553.53;5005614;28;20215;-70
2022/06/04 02:38:30;;;;;;;0.70;0.70;;;;;;;20.15;84.12;99565.44;5012818;28;20128;-70
2022/06/04 02:41:06;;;;;;;0.70;0.70;;;;;;;20.03;83.89;99541.69;5028816;28;20394;-70
2022/06/04 02:43:52;;;;;;;1.05;0.80;;;;;;;20.05;83.95;99546.84;5054550;28;20064;-70
2022/06/04 02:46:30;;;;;;;1.95;1.15;;;;;;;20.12;84.06;99557.78;5054555;28;20478;-70
2022/06/04 02:49:09;;;;;;;0.80;0.80;;;;;;;20.12;84.00;99565.56;5054480;28;20140;-70
2022/06/04 02:51:41;;;;;;;0.60;0.60;;;;;;;20.06;83.99;99566.63;5054649;28;20045;-70
2022/06/04 02:54:18;;;;;;;0.95;0.80;;;;;;;20.11;84.06;99571.66;5054578;28;20193;-70
2022/06/04 02:56:58;;;;;;;1.52;1.08;;;;;;;19.99;84.23;99553.09;5054295;28;20041;-70
2022/06/04 02:59:34;;;;;;;1.13;1.02;;;;;;;19.96;83.86;99558.41;5054598;28;20079;-70
2022/06/04 03:02:09;;;;;;;1.60;1.35;;;;;;;20.08;84.01;99573.44;5054395;28;20412;-70
2022/06/04 03:04:43;;;;;;;1.13;1.02;;;;;;;20.08;84.12;99571.78;5054252;28;20041;-70
2022/06/04 03:07:22;;;;;;;1.23;1.13;;;;;;;20.05;83.92;99568.41;5054611;28;20057;-70
2022/06/04 03:10:08;;;;;;;0.63;0.63;;;;;;;20.10;83.87;99575.16;5054084;28;20037;-70
2022/06/04 03:12:40;;;;;;;0.68;0.68;;;;;;;20.08;83.92;99577.81;5054206;28;20044;-69
2022/06/04 03:15:10;;;;;;;0.68;0.68;;;;;;;20.07;83.82;99586.47;5054025;28;20106;-70
2022/06/04 03:17:42;;;;;;;2.33;0.93;;;;;;;20.06;83.74;99593.41;5036277;28;20143;-70
2022/06/04 03:20:13;;;;;;;1.10;1.05;;;;;;;20.05;83.70;99589.16;5053986;28;20128;-70
2022/06/04 03:22:42;;;;;;;0.60;0.60;;;;;;;20.10;83.90;99593.28;5053946;28;20049;-70
2022/06/04 03:25:11;;;;;;;2.92;1.48;;;;;;;20.10;83.90;99588.09;5053418;28;20037;-70
2022/06/04 03:27:40;;;;;;;0.75;0.75;;;;;;;20.10;83.79;99590.69;5053753;28;20053;-70
2022/06/04 03:30:10;;;;;;;5.10;1.80;;;;;;;20.10;83.80;99575.16;5053638;28;20072;-71
2022/06/04 03:32:49;;;;;;;0.90;0.90;;;;;;;20.12;83.68;99575.91;5053679;28;20045;-70
2022/06/04 03:35:18;;;;;;;1.30;1.08;;;;;;;20.09;83.70;99579.47;5054049;28;20045;-70
2022/06/04 03:37:47;;;;;;;1.17;0.90;;;;;;;20.08;83.74;99573.44;5053790;28;20049;-70
2022/06/04 03:40:19;;;;;;;1.55;1.27;;;;;;;20.07;83.89;99560.56;5052912;28;20057;-70
2022/06/04 03:42:48;;;;;;;1.40;1.30;;;;;;;19.94;83.99;99560.22;5053599;28;20075;-69
2022/06/04 03:45:17;;;;;;;0.60;0.60;;;;;;;19.95;84.42;99561.91;5054017;28;20131;-70
2022/06/04 03:47:49;;;;;;;1.67;1.45;;;;;;;19.94;84.68;99555.03;5053807;28;20049;-69
2022/06/04 03:50:19;;;;;;;0.63;0.63;;;;;;;19.93;84.84;99555.97;5035748;28;20052;-69
2022/06/04 03:52:51;;;;;;;0.90;0.90;;;;;;;19.94;85.06;99565.41;5053437;28;20095;-69
2022/06/04 03:55:20;;;;;;;1.83;1.60;;;;;;;19.96;85.19;99568.75;5053516;28;20048;-69
2022/06/04 03:57:52;;;;;;;1.38;1.20;;;;;;;19.90;85.28;99569.03;5054469;28;20103;-69
2022/06/04 04:00:23;;;;;;;1.65;1.55;;;;;;;19.96;85.51;99573.94;5035676;28;20467;-69
2022/06/04 04:02:55;;;;;;;2.60;1.98;;;;;;;19.98;85.56;99577.34;5053395;28;20079;-69
2022/06/04 04:05:27;;;;;;;3.28;1.52;;;;;;;19.91;85.60;99575.91;5053384;28;20041;-69
2022/06/04 04:08:07;;;;;;;1.73;1.63;;;;;;;19.84;85.49;99579.63;5053333;28;20060;-69
2022/06/04 04:10:47;;;;;;;1.25;1.13;;;;;;;19.73;85.85;99576.63;5053220;28;20049;-69
2022/06/04 04:13:25;;;;;;;1.88;1.63;;;;;;;19.77;86.09;99588.53;5053235;28;20549;-69
2022/06/04 04:15:57;;;;;;;1.13;1.02;;;;;;;19.78;86.30;99574.69;5053872;28;20044;-69
2022/06/04 04:18:30;;;;;;;1.08;0.98;;;;;;;19.92;86.61;99581.91;5053582;28;20118;-69
2022/06/04 04:21:14;;;;;;;1.60;0.95;;;;;;;19.89;86.51;99564.75;5053036;28;20047;-69
2022/06/04 04:23:44;;;;;;;1.02;0.95;;;;;;;19.97;86.52;99577.38;5053713;28;20482;-69
2022/06/04 04:26:31;;;;;;;1.55;1.25;;;;;;;20.08;86.24;99586.41;5053463;28;20451;-69
2022/06/04 04:29:00;;;;;;;1.58;0.80;;;;;;;20.12;86.23;99583.69;5053202;28;20090;-69
2022/06/04 04:31:37;;;;;;;1.15;0.98;;;;;;;20.14;85.95;99593.09;5053305;28;20122;-69
2022/06/04 04:34:08;;;;;;;2.17;1.92;;;;;;;20.15;86.21;99596.53;5053081;28;20059;-69
2022/06/04 04:36:37;;;;;;;1.05;0.98;;;;;;;20.13;85.93;99590.56;5053030;28;20083;-69
2022/06/04 04:39:05;;;;;;;0.73;0.60;;;;;;;20.22;86.13;99591.06;5055902;28;20525;-69
2022/06/04 04:41:34;;;;;;;3.00;2.15;;;;;;;20.25;86.09;99601.28;5056591;28;20328;-69
2022/06/04 04:44:33;;;;;;;1.07;0.93;;;;;;;20.32;85.87;99609.69;5057194;28;20048;-69
2022/06/04 04:47:02;;;;;;;1.08;1.02;;;;;;;20.34;85.59;99620.84;5057321;28;20313;-69
2022/06/04 04:49:32;;;;;;;0.80;0.80;;;;;;;20.41;85.43;99611.88;5056924;28;20067;-69
2022/06/04 04:52:06;;;;;;;1.05;0.82;;;;;;;20.45;85.15;99603.06;5039005;28;20052;-69
2022/06/04 04:54:35;;;;;;;0.73;0.70;;;;;;;20.49;84.84;99599.47;5057178;28;20048;-68
2022/06/04 04:57:04;;;;;;;1.30;1.00;;;;;;;20.58;84.65;99604.25;5056674;28;20056;-69
2022/06/04 04:59:33;;;;;;;0.50;0.50;;;;;;;20.62;84.64;99610.97;5056647;28;20048;-69
2022/06/04 05:02:12;;;;;;;0.90;0.75;;;;;;;20.66;84.38;99610.78;5056561;28;20041;-69
2022/06/04 05:05:00;;;;;;;1.08;0.98;;;;;;;20.65;84.36;99585.75;5056480;28;20049;-69
2022/06/04 05:07:29;;;;;;;1.10;0.80;;;;;;;20.94;84.12;99601.81;5056379;28;20049;-69
2022/06/04 05:09:58;;;;;;;1.17;1.10;;;;;;;21.02;83.75;99603.13;5056324;28;20123;-69
2022/06/04 05:12:30;;;;;;;1.10;1.00;;;;;;;21.08;83.19;99609.84;5056326;28;20408;-68
2022/06/04 05:14:59;;;;;;;2.03;1.55;;;;;;;21.10;82.62;99603.69;5056675;28;20501;-68
2022/06/04 05:17:28;;;;;;;2.22;0.88;;;;;;;21.16;82.29;99611.19;5056255;28;20379;-68
2022/06/04 05:19:59;;;;;;;0.70;0.70;;;;;;;21.07;81.77;99609.00;5057066;28;20043;-68
2022/06/04 05:22:31;;;;;;;1.80;1.15;;;;;;;21.03;81.72;99599.66;5056140;28;20069;-68
2022/06/04 05:25:00;;;;;;;1.13;1.02;;;;;;;21.11;81.53;99600.19;5056383;28;20048;-68
2022/06/04 05:27:29;;;;;;;0.80;0.80;;;;;;;21.12;81.21;99603.59;5056333;28;20398;-68
2022/06/04 05:29:58;;;;;;;0.80;0.80;;;;;;;21.20;81.03;99589.38;5055930;28;20034;-68
2022/06/04 05:32:35;;;;;;;1.10;0.93;;;;;;;21.26;80.77;99594.28;5056083;28;20107;-68
2022/06/04 05:35:07;;;;;;;1.05;0.85;;;;;;;21.33;80.12;99605.25;5056656;28;20037;-68
2022/06/04 05:37:36;;;;;;;0.70;0.70;;;;;;;21.29;79.76;99601.94;5056203;28;20057;-68
2022/06/04 05:40:07;;;;;;;2.17;1.70;;;;;;;21.27;79.44;99611.56;5056241;28;20131;-68
2022/06/04 05:42:36;;;;;;;0.70;0.70;;;;;;;21.24;79.17;99606.50;5038374;28;20060;-68
2022/06/04 05:45:05;;;;;;;1.02;0.80;;;;;;;21.27;78.88;99610.72;5055679;28;20047;-68
2022/06/04 05:47:34;;;;;;;1.17;0.88;;;;;;;21.31;78.49;99613.09;5055799;28;20495;-68
2022/06/04 05:50:04;;;;;;;0.82;0.82;;;;;;;21.52;78.39;99624.28;5055093;28;20049;-68
2022/06/04 05:52:34;;;;;;;;;;;;;;;21.60;77.74;99613.50;5055839;28;20037;-68
2022/06/04 05:55:03;;;;;;;0.57;0.57;;;;;;;21.67;77.49;99610.56;5055791;28;19928;-68
2022/06/04 05:57:32;;;;;;;1.60;1.20;;;;;;;21.68;77.14;99581.06;5055443;28;20053;-68
2022/06/04 06:00:01;;;;;;;0.88;0.85;;;;;;;21.80;76.80;99616.03;5055750;28;20033;-68
2022/06/04 06:02:39;;;;;;;0.82;0.80;;;;;;;21.81;76.67;99600.34;5055400;28;20410;-69
2022/06/04 06:05:09;;;;;;;0.90;0.90;;;;;;;22.08;76.67;99611.19;5055905;28;20091;-68
2022/06/04 06:07:40;;;;;;;1.45;1.35;;;;;;;22.10;76.24;99604.16;5055539;28;20107;-68
2022/06/04 06:10:10;;;;;;;0.77;0.77;;;;;;;22.08;75.50;99598.22;5055564;28;20498;-68
2022/06/04 06:12:51;;;;;;;;;;;;;;;22.16;75.43;99614.28;5055778;28;20033;-69
2022/06/04 06:15:20;;;;;;;1.50;1.02;;;;;;;22.21;75.15;99617.50;5055094;28;19928;-68
2022/06/04 06:17:49;;;;;;;0.60;0.60;;;;;;;22.29;74.93;99615.34;5055063;28;20544;-68
2022/06/04 06:20:17;;;;;;;0.95;0.82;;;;;;;22.35;74.77;99615.06;5054953;28;20041;-68
2022/06/04 06:22:48;;;;;;;3.20;1.43;;;;;;;22.42;74.55;99626.84;5055565;28;20398;-68
2022/06/04 06:25:17;;;;;;;0.82;0.82;;;;;;;22.47;74.21;99621.41;5054924;28;20124;-68
2022/06/04 06:27:55;;;;;;;1.67;1.58;;;;;;;22.55;73.74;99617.50;5054900;28;20041;-68
2022/06/04 06:30:24;;;;;;;0.77;0.77;;;;;;;22.60;73.36;99620.69;5055184;28;20098;-69
2022/06/04 06:32:58;;;;;;;0.93;0.82;;;;;;;22.60;73.28;99615.50;5054629;28;20079;-69
2022/06/04 06:35:27;;;;;;;1.75;1.10;;;;;;;22.63;72.94;99614.53;5055197;28;20048;-69
2022/06/04 06:38:00;;;;;;;1.10;1.00;;;;;;;22.76;72.70;99609.56;5054679;28;20041;-69
2022/06/04 06:40:29;;;;;;;1.30;1.20;;;;;;;22.69;72.32;99603.81;5054364;28;20047;-68
2022/06/04 06:42:58;;;;;;;0.80;0.80;;;;;;;22.68;72.11;99602.97;5054753;28;20037;-68
2022/06/04 06:45:27;;;;;;;0.70;0.70;;;;;;;22.68;72.03;99592.56;5054499;28;20083;-68
2022/06/04 06:47:56;;;;;;;0.52;0.52;;;;;;;22.71;71.49;99593.31;5054817;28;20037;-69
2022/06/04 06:50:25;;;;;;;0.68;0.68;;;;;;;22.64;71.53;99580.66;5054751;28;20360;-69
2022/06/04 06:52:56;;;;;;;1.30;0.93;;;;;;;22.45;71.79;99582.47;5054453;28;20099;-69
2022/06/04 06:55:28;;;;;;;1.00;0.90;;;;;;;22.39;72.60;99577.56;5054647;28;20398;-69
2022/06/04 06:58:00;;;;;;;16.27;1.45;;;;;;;22.64;72.88;99595.41;5054362;28;20556;-69
2022/06/04 07:00:29;;;;;;;0.68;0.68;;;;;;;22.43;73.18;99540.09;5053457;28;20052;-70
2022/06/04 07:02:58;;;;;;;1.17;1.08;;;;;;;22.72;72.99;99576.81;5054145;28;20044;-68
2022/06/04 07:05:27;;;;;;;1.08;0.98;;;;;;;22.35;72.46;99511.03;5054258;28;20045;-68
2022/06/04 07:07:56;;;;;;;1.00;0.93;;;;;;;22.99;72.22;99583.16;5054406;28;20044;-68
2022/06/04 07:10:25;;;;;;;1.30;1.15;;;;;;;23.19;72.02;99573.38;5054027;28;20128;-68
2022/06/04 07:12:55;;;;;;;0.77;0.77;;;;;;;23.33;71.89;99570.00;5053826;28;20041;-68
2022/06/04 07:15:24;;;;;;;0.70;0.60;;;;;;;23.31;71.18;99582.28;5054022;28;20328;-67
2022/06/04 07:17:53;;;;;;;1.80;1.17;;;;;;;23.19;71.02;99580.34;5053767;28;20052;-67
2022/06/04 07:20:22;;;;;;;1.15;0.95;;;;;;;23.25;71.19;99590.44;5053858;28;20278;-67
2022/06/04 07:22:52;;;;;;;1.02;0.95;;;;;;;23.48;71.41;99603.09;5053953;28;20045;-68
2022/06/04 07:25:22;;;;;;;1.15;1.05;;;;;;;23.68;71.01;99597.59;5053808;28;20502;-67
2022/06/04 07:27:51;;;;;;;0.57;0.52;;;;;;;23.77;70.92;99591.91;5054075;28;20445;-66
2022/06/04 07:30:24;;;;;;;0.90;0.85;;;;;;;24.11;71.17;99588.25;5053666;28;20071;-67
2022/06/04 07:32:54;;;;;;;1.23;1.08;;;;;;;24.42;70.47;99598.59;5053596;28;20094;-66
2022/06/04 07:35:22;;;;;;;0.82;0.80;;;;;;;24.58;70.08;99593.28;5053913;28;20037;-66
2022/06/04 07:37:51;;;;;;;0.85;0.80;;;;;;;24.67;69.16;99595.34;5053465;28;20128;-66
2022/06/04 07:40:21;;;;;;;2.97;1.10;;;;;;;24.90;69.02;99591.41;5053752;28;20465;-66
2022/06/04 07:42:50;;;;;;;0.52;0.52;;;;;;;24.87;68.81;99586.34;5053502;28;20490;-66
2022/06/04 07:45:19;;;;;;;0.60;0.60;;;;;;;25.00;68.96;99595.13;5053546;28;20049;-66
2022/06/04 07:47:50;;;;;;;0.57;0.57;;;;;;;24.89;68.07;99595.78;5053469;28;20087;-67
2022/06/04 07:50:19;;;;;;;0.40;0.40;;;;;;;24.97;67.90;99587.47;5053553;28;20590;-66
2022/06/04 07:52:48;;;;;;;;;;;;;;;25.11;67.48;99588.31;5053822;28;20068;-66
2022/06/04 07:55:16;;;;;;;0.60;0.60;;;;;;;25.07;67.03;99596.44;5053356;28;20290;-66
2022/06/04 07:57:45;;;;;;;0.57;0.57;;;;;;;25.21;66.82;99592.06;5053743;28;20087;-66
2022/06/04 08:00:15;;;;;;;0.40;0.40;;;;;;;25.30;66.46;99586.25;5053242;28;20045;-66
2022/06/04 08:02:46;;;;;;;0.60;0.60;;;;;;;25.19;65.73;99586.06;5053366;28;20073;-66
2022/06/04 08:05:19;;;;;;;0.52;0.52;;;;;;;25.09;65.96;99589.34;5053768;28;20490;-66
2022/06/04 08:07:48;;;;;;;1.15;1.13;;;;;;;25.07;66.48;99593.81;5053644;28;20095;-66
2022/06/04 08:10:17;;;;;;;0.73;0.73;;;;;;;25.05;67.41;99586.06;5053245;28;20045;-66
2022/06/04 08:12:47;;;;;;;0.60;0.60;;;;;;;24.90;67.40;99597.47;5055672;28;20057;-67
2022/06/04 08:15:16;;;;;;;0.70;0.70;;;;;;;24.74;66.69;99596.66;5057595;28;20037;-66
2022/06/04 08:17:47;;;;;;;0.75;0.75;;;;;;;24.59;66.89;99603.63;5057599;28;20128;-67
2022/06/04 08:20:17;;;;;;;0.60;0.60;;;;;;;24.70;67.37;99610.00;5039602;28;20037;-66
2022/06/04 08:22:47;;;;;;;0.47;0.47;;;;;;;24.68;67.19;99602.25;5057155;28;20081;-66
2022/06/04 08:25:16;;;;;;;1.25;1.15;;;;;;;24.78;67.13;99597.38;5057308;28;20128;-67
2022/06/04 08:27:45;;;;;;;2.47;0.70;;;;;;;24.99;67.31;99596.06;5057248;28;20574;-67
2022/06/04 08:30:15;;;;;;;1.30;0.60;;;;;;;25.16;67.11;99596.72;5056926;28;20041;-67
2022/06/04 08:32:44;;;;;;;12.45;1.75;;;;;;;25.03;66.19;99585.31;5039574;28;20045;-67
2022/06/04 08:35:13;;;;;;;1.30;1.20;;;;;;;25.17;66.15;99603.59;5056790;28;20037;-67
2022/06/04 08:37:42;;;;;;;0.90;0.90;;;;;;;25.20;66.60;99613.88;5056934;28;20037;-67
2022/06/04 08:40:26;;;;;;;0.68;0.68;;;;;;;25.12;66.45;99608.25;5057144;28;20136;-67
2022/06/04 08:43:11;;;;;;;0.80;0.80;;;;;;;25.07;66.31;99607.75;5056951;28;20457;-67
2022/06/04 08:45:40;;;;;;;0.52;0.52;;;;;;;25.01;66.64;99610.72;5057136;28;20228;-67
2022/06/04 08:48:17;;;;;;;0.50;0.50;;;;;;;24.88;66.63;99609.78;5038993;28;20445;-67
2022/06/04 08:50:47;;;;;;;0.60;0.60;;;;;;;24.74;67.04;99611.50;5057039;28;20461;-66
2022/06/04 08:53:22;;;;;;;0.73;0.73;;;;;;;24.73;67.11;99617.66;5056659;28;20045;-68
2022/06/04 08:58:50;;;;;;;1.38;1.13;;;;;;;24.56;67.40;99608.22;5056621;28;20044;-67
2022/06/04 09:01:24;;;;;;;0.77;0.77;;;;;;;24.52;67.47;99609.31;5057020;28;20424;-68
2022/06/04 09:04:03;;;;;;;0.57;0.57;;;;;;;24.53;67.12;99608.38;5056404;28;20049;-68
2022/06/04 09:06:44;;;;;;;1.20;1.10;;;;;;;24.55;66.99;99606.50;5056491;28;20052;-67
2022/06/04 09:09:18;;;;;;;0.60;0.60;;;;;;;24.68;66.46;99604.88;5056419;28;20478;-67
2022/06/04 09:11:55;;;;;;;0.50;0.50;;;;;;;24.97;65.97;99604.00;5056557;28;20053;-67
2022/06/04 09:14:34;;;;;;;1.10;0.85;;;;;;;25.33;64.99;99598.28;5056518;28;20437;-68
2022/06/04 09:17:04;;;;;;;;;;;;;;;25.50;63.96;99597.25;5056563;28;20064;-66
2022/06/04 09:19:36;;;;;;;0.50;0.50;;;;;;;25.71;62.98;99581.03;5056515;28;19935;-67
2022/06/04 09:22:17;;;;;;;1.13;1.02;;;;;;;25.77;62.69;99591.09;5056088;28;20124;-68
2022/06/04 09:24:46;;;;;;;0.70;0.70;;;;;;;25.92;63.36;99602.34;5055208;28;20557;-66
2022/06/04 09:27:29;;;;;;;0.60;0.60;;;;;;;25.96;63.43;99611.69;5056255;28;20068;-68
2022/06/04 09:30:14;;;;;;;0.70;0.68;;;;;;;26.21;63.69;99611.78;5055874;28;20051;-70
2022/06/04 09:32:55;;;;;;;1.17;0.90;;;;;;;26.40;62.58;99616.63;5056303;28;20375;-66
2022/06/04 09:35:29;;;;;;;1.08;0.93;;;;;;;26.41;61.50;99608.69;5055750;28;20076;-67
2022/06/04 09:37:59;;;;;;;0.70;0.70;;;;;;;26.43;61.15;99617.28;5055845;28;20479;-67
2022/06/04 09:40:31;;;;;;;3.22;1.75;;;;;;;26.70;61.94;99614.59;5055743;28;20494;-66
2022/06/04 09:43:12;;;;;;;0.68;0.68;;;;;;;26.81;60.54;99627.81;5055713;28;20495;-67
2022/06/04 09:46:05;;;;;;;0.90;0.77;;;;;;;26.81;60.17;99626.97;5055498;28;20099;-67
2022/06/04 09:48:37;;;;;;;0.75;0.75;;;;;;;26.87;60.10;99618.72;5056277;28;20045;-67
2022/06/04 09:51:16;;;;;;;6.22;1.77;;;;;;;26.87;60.07;99616.94;5055488;28;20045;-68
2022/06/04 09:53:48;;;;;;;;;;;;;;;26.85;60.24;99628.47;5056334;28;20490;-68
2022/06/04 09:56:28;;;;;;;1.15;1.05;;;;;;;26.60;59.96;99622.22;5037617;28;19927;-66
2022/06/04 09:59:09;;;;;;;0.65;0.60;;;;;;;26.42;60.34;99615.59;5055455;28;20564;-69
2022/06/04 10:01:38;;;;;;;0.40;0.40;;;;;;;26.29;60.05;99625.22;5055294;28;20399;-67
2022/06/04 10:04:15;;;;;;;1.05;0.93;;;;;;;26.25;59.98;99613.25;5055330;28;20033;-68
2022/06/04 10:06:44;;;;;;;0.73;0.73;;;;;;;26.32;59.69;99618.94;5055382;28;20049;-68
2022/06/04 10:11:57;;;;;;;5.90;1.73;;;;;;;26.25;60.29;99618.47;5055160;28;20064;-68
2022/06/04 10:14:33;;;;;;;0.50;0.50;;;;;;;26.35;60.62;99614.31;5055020;28;20041;-67
2022/06/04 10:17:02;;;;;;;0.77;0.77;;;;;;;26.50;60.21;99612.47;5054954;28;20060;-68
2022/06/04 10:19:33;;;;;;;0.93;0.93;;;;;;;26.63;59.24;99601.06;5055092;28;20045;-67
2022/06/04 10:22:06;;;;;;;0.82;0.80;;;;;;;26.78;58.69;99619.34;5055310;28;20482;-67
2022/06/04 10:24:50;;;;;;;0.73;0.73;;;;;;;27.06;59.02;99617.34;5055245;28;20044;-68
2022/06/04 10:27:35;;;;;;;0.50;0.50;;;;;;;27.27;58.22;99612.38;5037256;28;20052;-68
2022/06/04 10:30:19;;;;;;;0.40;0.40;;;;;;;27.38;57.58;99607.25;5054751;28;20052;-66
2022/06/04 10:33:03;;;;;;;1.02;0.93;;;;;;;27.49;56.77;99599.47;5055189;28;20094;-68
2022/06/04 10:35:51;;;;;;;0.68;0.63;;;;;;;27.66;56.99;99596.47;5054504;28;20045;-68
2022/06/04 10:38:28;;;;;;;0.93;0.88;;;;;;;27.51;55.94;99601.97;5055057;28;20128;-68
2022/06/04 10:41:08;;;;;;;0.88;0.80;;;;;;;27.10;56.07;99602.22;5054474;28;20132;-68
2022/06/04 10:44:05;;;;;;;0.65;0.57;;;;;;;26.94;58.47;99606.88;5054670;28;20048;-67
2022/06/04 10:46:43;;;;;;;1.00;0.95;;;;;;;27.13;57.73;99597.63;5054546;28;20098;-68
2022/06/04 10:49:36;;;;;;;0.52;0.52;;;;;;;27.58;56.91;99597.97;5054415;28;20136;-68
2022/06/04 10:52:20;;;;;;;1.23;0.80;;;;;;;27.87;55.73;99602.78;5054737;28;20083;-68
2022/06/04 10:55:06;;;;;;;0.70;0.70;;;;;;;28.11;54.61;99588.81;5054569;28;20045;-68
2022/06/04 10:57:39;;;;;;;1.17;1.05;;;;;;;28.30;54.91;99597.84;5054714;28;20061;-68
2022/06/04 11:00:16;;;;;;;0.57;0.57;;;;;;;28.31;53.96;99598.69;5054510;28;20498;-68
2022/06/04 11:02:53;;;;;;;1.45;1.13;;;;;;;28.36;53.60;99597.38;5036980;28;20102;-68
2022/06/04 11:05:25;;;;;;;0.55;0.55;;;;;;;28.19;54.43;99589.94;5054121;28;20056;-68
2022/06/04 11:08:02;;;;;;;0.75;0.73;;;;;;;28.11;54.73;99589.66;5054176;28;20045;-68
2022/06/04 11:10:34;;;;;;;0.63;0.63;;;;;;;28.05;55.00;99597.97;5036301;28;20043;-68
2022/06/04 11:13:10;;;;;;;0.50;0.50;;;;;;;28.06;54.97;99597.03;5036437;28;20049;-68
2022/06/04 11:15:43;;;;;;;0.73;0.73;;;;;;;28.19;54.57;99604.84;5054344;28;20049;-68
2022/06/04 11:18:19;;;;;;;1.30;1.20;;;;;;;28.46;54.10;99608.03;5053902;28;20106;-68
2022/06/04 11:20:56;;;;;;;0.80;0.80;;;;;;;28.55;53.44;99604.72;5053921;28;20487;-68
2022/06/04 11:23:37;;;;;;;19.38;2.28;;;;;;;28.77;53.66;99606.59;5054168;28;20394;-68
2022/06/04 11:26:17;;;;;;;0.52;0.52;;;;;;;28.70;53.34;99608.81;5054109;28;20045;-68
2022/06/04 11:28:46;;;;;;;0.63;0.63;;;;;;;28.53;53.33;99606.59;5053888;28;20051;-68
2022/06/04 11:31:34;;;;;;;0.68;0.50;;;;;;;28.43;53.95;99608.28;5053760;28;20128;-68
2022/06/04 11:34:27;;;;;;;0.70;0.70;;;;;;;28.26;53.92;99606.91;5053755;28;20053;-68
2022/06/04 11:37:06;;;;;;;0.60;0.60;;;;;;;27.92;53.84;99603.28;5011133;28;20080;-67
2022/06/04 11:39:50;;;;;;;0.70;0.70;;;;;;;27.87;54.25;99601.94;5053653;28;20055;-68
2022/06/04 11:42:31;;;;;;;0.70;0.70;;;;;;;27.80;54.97;99574.47;5053487;28;20053;-68
2022/06/04 11:45:23;;;;;;;0.82;0.77;;;;;;;28.02;54.93;99600.00;5053606;28;20041;-68
2022/06/04 11:48:06;;;;;;;0.52;0.52;;;;;;;27.86;54.99;99593.22;5053285;28;20579;-67
2022/06/04 11:50:43;;;;;;;1.88;1.33;;;;;;;27.97;55.99;99596.84;5053549;28;20045;-68
2022/06/04 11:53:24;;;;;;;2.60;0.93;;;;;;;28.11;55.97;99586.19;5053679;28;20131;-66
2022/06/04 11:55:59;;;;;;;1.23;0.98;;;;;;;28.26;55.72;99587.69;5053623;28;20055;-67
2022/06/04 11:59:03;;;;;;;1.30;0.70;;;;;;;28.26;55.22;99590.31;5053350;28;20049;-68
2022/06/04 12:01:38;;;;;;;0.60;0.60;;;;;;;28.23;55.21;99564.28;5053574;28;20406;-67
2022/06/04 12:04:17;;;;;;;0.50;0.50;;;;;;;28.55;56.11;99586.34;5053355;28;20056;-68
2022/06/04 12:06:52;;;;;;;1.75;1.30;;;;;;;28.52;55.64;99581.31;5053383;28;20045;-67
2022/06/04 12:09:29;;;;;;;0.60;0.60;;;;;;;28.37;55.61;99585.09;5053514;28;20115;-68
2022/06/04 12:12:03;;;;;;;0.60;0.60;;;;;;;28.44;55.99;99578.41;5053339;28;20281;-67
2022/06/04 12:14:40;;;;;;;2.85;1.70;;;;;;;28.56;54.77;99585.38;5053147;28;20059;-67
2022/06/04 12:17:14;;;;;;;0.60;0.60;;;;;;;28.45;54.29;99580.09;5053175;28;20056;-68
2022/06/04 12:25:15;;;;;;;0.50;0.50;;;;;;;28.62;54.26;99582.31;5053488;28;20094;-68
2022/06/04 12:27:54;;;;;;;2.63;1.90;;;;;;;28.64;54.02;99576.94;5052983;28;20047;-68
2022/06/04 12:30:33;;;;;;;;;;;;;;;28.67;53.35;99574.94;5035705;28;20056;-68
2022/06/04 12:33:09;;;;;;;0.50;0.50;;;;;;;28.60;53.45;99581.63;5053371;28;19947;-69
2022/06/04 12:35:39;;;;;;;1.60;1.50;;;;;;;28.53;53.03;99582.97;5052930;28;20593;-69